Time;durP1;ratioP1;P1;durP2;ratioP2;P2;SDS_P1;SDS_P2;PMS_P1;PMS_P2;Temp;Humidity;BMP_temperature;BMP_pressure;BME280_temperature;BME280_humidity;BME280_pressure;Samples;Min_cycle;Max_cycle;Signal;HPM_P1;HPM_P2
2022/07/27 00:04:38;;;;;;;2.83;0.50;;;27.70;45.70;;;;;;10393900;28;20405;-40
2022/07/27 00:09:40;;;;;;;2.08;0.30;;;27.70;45.70;;;;;;10396174;28;20129;-40
2022/07/27 00:14:43;;;;;;;1.35;0.30;;;27.70;45.80;;;;;;10396098;28;20648;-39
2022/07/27 00:19:45;;;;;;;0.70;0.40;;;27.60;45.70;;;;;;10399956;28;20132;-39
2022/07/27 00:24:47;;;;;;;0.75;0.32;;;27.60;45.80;;;;;;10398319;28;20128;-39
2022/07/27 00:29:50;;;;;;;2.42;0.50;;;27.60;45.80;;;;;;10401379;28;20103;-39
2022/07/27 00:34:52;;;;;;;0.80;0.30;;;27.60;45.80;;;;;;10402585;28;20072;-39
2022/07/27 00:39:55;;;;;;;0.35;0.10;;;27.50;45.80;;;;;;10404371;28;20482;-41
2022/07/27 00:44:59;;;;;;;2.90;0.40;;;27.50;45.80;;;;;;10403500;28;20045;-38
2022/07/27 00:50:01;;;;;;;1.55;0.50;;;27.50;45.80;;;;;;10395982;28;20136;-40
2022/07/27 00:55:04;;;;;;;0.70;0.20;;;27.40;45.90;;;;;;10405645;28;20072;-40
2022/07/27 01:00:09;;;;;;;1.13;0.30;;;27.40;45.80;;;;;;10398498;28;20062;-40
2022/07/27 01:05:11;;;;;;;1.25;0.40;;;27.40;45.90;;;;;;10395535;28;20057;-41
2022/07/27 01:10:13;;;;;;;1.33;0.38;;;27.40;45.90;;;;;;10401801;28;20421;-39
2022/07/27 01:15:17;;;;;;;2.63;0.43;;;27.30;46.00;;;;;;10398236;28;20123;-38
2022/07/27 01:20:19;;;;;;;0.73;0.20;;;27.30;46.00;;;;;;10397446;28;20085;-38
2022/07/27 01:25:22;;;;;;;1.30;0.40;;;27.30;46.00;;;;;;10397416;28;20099;-39
2022/07/27 01:30:28;;;;;;;0.88;0.30;;;27.30;46.10;;;;;;10399616;28;20065;-40
2022/07/27 01:35:31;;;;;;;1.25;0.30;;;27.20;46.10;;;;;;10402604;28;20048;-39
2022/07/27 01:40:36;;;;;;;2.20;0.50;;;27.20;46.10;;;;;;10402425;28;20057;-41
2022/07/27 01:45:39;;;;;;;2.95;0.30;;;27.20;46.10;;;;;;10403828;28;20040;-42
2022/07/27 01:50:41;;;;;;;0.70;0.30;;;27.20;46.70;;;;;;10401499;28;20100;-39
2022/07/27 01:55:44;;;;;;;0.55;0.30;;;27.10;46.10;;;;;;10403281;28;20091;-40
2022/07/27 02:00:47;;;;;;;1.52;0.20;;;27.10;46.20;;;;;;10402671;28;20511;-40
2022/07/27 02:05:49;;;;;;;0.40;0.28;;;27.10;46.20;;;;;;10402491;28;20123;-39
2022/07/27 02:16:13;;;;;;;1.42;0.20;;;27.10;46.30;;;;;;10401336;28;20053;-40
2022/07/27 02:21:15;;;;;;;6.35;0.25;;;27.00;46.20;;;;;;10400074;28;20060;-38
2022/07/27 02:26:19;;;;;;;1.73;0.45;;;27.00;46.20;;;;;;10395682;28;20124;-40
2022/07/27 02:31:21;;;;;;;2.75;0.22;;;27.00;46.30;;;;;;10399478;28;20450;-40
2022/07/27 02:36:23;;;;;;;3.63;0.30;;;27.00;46.30;;;;;;10399425;28;20262;-39
2022/07/27 02:41:26;;;;;;;0.98;0.30;;;26.90;46.20;;;;;;10399539;28;20494;-41
2022/07/27 02:46:28;;;;;;;0.55;0.30;;;26.90;46.80;;;;;;10401263;28;20441;-41
2022/07/27 02:51:30;;;;;;;1.83;0.20;;;26.90;46.30;;;;;;10403265;28;20057;-40
2022/07/27 02:56:34;;;;;;;2.42;0.28;;;26.90;46.30;;;;;;10401011;28;20145;-39
2022/07/27 03:01:36;;;;;;;0.60;0.30;;;26.90;46.30;;;;;;10401188;28;20115;-39
2022/07/27 03:06:38;;;;;;;1.50;0.40;;;26.80;46.20;;;;;;10401934;28;20064;-41
2022/07/27 03:11:42;;;;;;;0.73;0.30;;;26.80;46.20;;;;;;10400479;28;20868;-38
2022/07/27 03:16:44;;;;;;;1.92;0.32;;;26.80;46.30;;;;;;10401439;28;20052;-38
2022/07/27 03:21:46;;;;;;;0.30;0.17;;;26.70;46.20;;;;;;10399816;28;20765;-39
2022/07/27 03:26:49;;;;;;;0.85;0.40;;;26.70;46.20;;;;;;10402189;28;20041;-42
2022/07/27 03:31:51;;;;;;;0.60;0.30;;;26.70;46.10;;;;;;10400504;28;20052;-40
2022/07/27 03:36:53;;;;;;;1.20;0.28;;;26.70;46.10;;;;;;10399107;28;20132;-38
2022/07/27 03:41:57;;;;;;;0.30;0.20;;;26.70;46.20;;;;;;10401309;28;20046;-39
2022/07/27 03:46:59;;;;;;;0.55;0.25;;;26.70;46.10;;;;;;10403081;28;20049;-39
2022/07/27 03:52:00;;;;;;;2.03;0.40;;;26.60;46.10;;;;;;10408480;28;20143;-38
2022/07/27 03:57:04;;;;;;;1.05;0.30;;;26.60;46.20;;;;;;10407870;28;20093;-37
2022/07/27 04:02:06;;;;;;;1.42;0.30;;;26.60;46.10;;;;;;10402068;28;20045;-40
2022/07/27 04:07:09;;;;;;;0.30;0.20;;;26.50;46.10;;;;;;10406677;28;20049;-39
2022/07/27 04:12:12;;;;;;;0.70;0.45;;;26.60;46.20;;;;;;10405818;28;20446;-41
2022/07/27 04:17:14;;;;;;;0.63;0.32;;;26.50;46.70;;;;;;10406326;28;20059;-40
2022/07/27 04:22:16;;;;;;;0.40;0.20;;;26.50;46.10;;;;;;10404527;28;20068;-40
2022/07/27 04:27:19;;;;;;;2.55;0.50;;;26.50;46.10;;;;;;10402309;28;20043;-40
2022/07/27 04:32:21;;;;;;;1.92;0.38;;;26.40;46.10;;;;;;10398889;28;20505;-40
2022/07/27 04:37:23;;;;;;;4.50;0.38;;;26.40;46.10;;;;;;10398237;28;20513;-39
2022/07/27 04:42:27;;;;;;;0.88;0.50;;;26.40;46.00;;;;;;10398899;28;20041;-39
2022/07/27 04:47:29;;;;;;;4.35;0.98;;;26.40;45.90;;;;;;10400200;28;20048;-38
2022/07/27 04:52:31;;;;;;;1.00;0.32;;;26.40;45.90;;;;;;10401205;28;20499;-39
2022/07/27 04:57:34;;;;;;;1.15;0.68;;;26.30;45.70;;;;;;10394256;28;20794;-37
2022/07/27 05:02:39;;;;;;;1.50;0.20;;;26.40;45.60;;;;;;10396205;28;20055;-40
2022/07/27 05:07:41;;;;;;;1.42;0.30;;;26.30;45.60;;;;;;10395432;28;20482;-43
2022/07/27 05:12:44;;;;;;;0.47;0.20;;;26.30;46.20;;;;;;10394449;28;20128;-39
2022/07/27 05:17:46;;;;;;;1.98;0.30;;;26.30;45.40;;;;;;10397067;28;20085;-40
2022/07/27 05:22:48;;;;;;;3.80;0.38;;;26.30;45.50;;;;;;10396395;28;20045;-39
2022/07/27 05:27:52;;;;;;;4.00;0.40;;;26.30;45.60;;;;;;10394895;28;20081;-40
2022/07/27 05:32:53;;;;;;;4.05;0.55;;;26.20;45.50;;;;;;10399229;28;20480;-39
2022/07/27 05:37:55;;;;;;;1.80;0.50;;;26.20;45.30;;;;;;10400982;28;20115;-39
2022/07/27 05:42:59;;;;;;;1.63;0.60;;;26.20;45.40;;;;;;10399306;28;20369;-39
2022/07/27 05:48:03;;;;;;;0.95;0.40;;;26.20;45.40;;;;;;10397318;28;21435;-41
2022/07/27 05:53:05;;;;;;;2.30;0.60;;;26.20;45.40;;;;;;10397206;28;20359;-40
2022/07/27 05:58:09;;;;;;;1.10;0.40;;;26.20;45.40;;;;;;10398994;28;20057;-40
2022/07/27 06:03:11;;;;;;;1.85;0.50;;;26.20;45.40;;;;;;10399753;28;20124;-40
2022/07/27 06:08:13;;;;;;;2.25;0.45;;;26.20;45.40;;;;;;10399566;28;20526;-40
2022/07/27 06:13:16;;;;;;;1.50;0.40;;;26.20;45.40;;;;;;10390996;28;20065;-40
2022/07/27 06:18:18;;;;;;;4.55;0.60;;;26.20;45.50;;;;;;10395380;28;20047;-40
2022/07/27 06:23:20;;;;;;;1.17;0.40;;;26.20;45.40;;;;;;10399424;28;20482;-39
2022/07/27 06:28:23;;;;;;;1.63;0.50;;;26.10;45.30;;;;;;10391811;28;20533;-38
2022/07/27 06:33:27;;;;;;;7.15;0.45;;;26.20;45.30;;;;;;10397612;28;20045;-41
2022/07/27 06:38:29;;;;;;;0.82;0.40;;;26.20;45.30;;;;;;10398393;28;20059;-39
2022/07/27 06:43:33;;;;;;;1.23;0.50;;;26.20;45.30;;;;;;10393619;28;20049;-41
2022/07/27 06:48:34;;;;;;;1.70;0.40;;;26.20;45.30;;;;;;10397952;28;20037;-39
2022/07/27 06:53:37;;;;;;;2.08;0.65;;;26.20;45.30;;;;;;10397276;28;20081;-40
2022/07/27 06:58:40;;;;;;;1.60;0.45;;;26.10;45.30;;;;;;10398348;28;20056;-40
2022/07/27 07:03:42;;;;;;;0.90;0.40;;;26.10;45.30;;;;;;10396131;28;20110;-40
2022/07/27 07:08:44;;;;;;;1.83;0.50;;;26.10;45.40;;;;;;10396944;28;20041;-40
2022/07/27 07:13:47;;;;;;;4.57;1.10;;;26.20;45.40;;;;;;10395777;28;20099;-40
2022/07/27 07:18:49;;;;;;;2.67;0.70;;;26.20;45.40;;;;;;10395142;28;20401;-40
2022/07/27 07:23:51;;;;;;;1.35;0.60;;;26.20;45.40;;;;;;10398639;28;20125;-39
2022/07/27 07:28:54;;;;;;;2.67;0.65;;;26.20;45.50;;;;;;10388672;28;20045;-40
2022/07/27 07:33:56;;;;;;;1.63;0.65;;;26.20;45.30;;;;;;10393227;28;20049;-40
2022/07/27 07:38:58;;;;;;;1.38;0.60;;;26.20;45.10;;;;;;10404331;28;20228;-40
2022/07/27 07:44:02;;;;;;;1.85;0.80;;;26.30;44.90;;;;;;10403883;28;20044;-38
2022/07/27 07:49:09;;;;;;;1.25;0.52;;;26.50;44.40;;;;;;10397483;28;20053;-39
2022/07/27 07:54:11;;;;;;;2.15;0.68;;;26.60;44.30;;;;;;10397330;28;20041;-42
2022/07/27 07:59:14;;;;;;;1.50;0.68;;;26.40;44.70;;;;;;10399782;28;20429;-40
2022/07/27 08:04:16;;;;;;;3.92;2.25;;;26.50;44.60;;;;;;10403020;28;20037;-39
2022/07/27 08:09:20;;;;;;;3.47;1.30;;;26.60;44.40;;;;;;10404025;28;20045;-40
2022/07/27 08:14:25;;;;;;;2.70;1.40;;;26.70;44.20;;;;;;10400160;28;20050;-37
2022/07/27 08:19:27;;;;;;;3.22;1.35;;;26.80;44.10;;;;;;10403586;28;20199;-40
2022/07/27 08:24:29;;;;;;;4.75;1.45;;;26.80;44.10;;;;;;10401634;28;20492;-40
2022/07/27 08:29:32;;;;;;;2.88;1.02;;;26.80;44.10;;;;;;10403079;28;20049;-42
2022/07/27 08:34:34;;;;;;;3.95;1.25;;;26.80;44.10;;;;;;10399590;28;20371;-39
2022/07/27 08:39:36;;;;;;;3.50;0.88;;;26.60;44.30;;;;;;10401115;28;20379;-42
2022/07/27 08:44:41;;;;;;;2.53;0.90;;;26.70;44.30;;;;;;10401736;28;20508;-44
2022/07/27 08:49:44;;;;;;;6.30;0.95;;;26.80;44.20;;;;;;10401403;28;20038;-42
2022/07/27 08:54:47;;;;;;;3.35;0.95;;;26.90;44.20;;;;;;10397906;28;20612;-41
2022/07/27 08:59:50;;;;;;;1.63;0.68;;;26.90;44.10;;;;;;10397746;28;20081;-41
2022/07/27 09:04:52;;;;;;;3.38;0.50;;;26.90;44.00;;;;;;10396983;28;20733;-43
2022/07/27 09:09:54;;;;;;;2.97;0.57;;;26.90;44.00;;;;;;10401913;28;20103;-40
2022/07/27 09:15:07;;;;;;;2.95;0.85;;;26.80;43.70;;;;;;10400207;28;20407;-42
2022/07/27 09:20:11;;;;;;;1.33;0.47;;;26.90;43.80;;;;;;10400465;28;20049;-40
2022/07/27 09:25:15;;;;;;;5.45;0.98;;;27.00;43.80;;;;;;10400136;28;20060;-40
2022/07/27 09:30:19;;;;;;;1.55;0.50;;;26.90;43.80;;;;;;10401731;28;20503;-43
2022/07/27 09:35:24;;;;;;;1.23;0.50;;;27.00;43.90;;;;;;10399499;28;20148;-41
2022/07/27 09:40:26;;;;;;;1.90;0.50;;;27.00;43.70;;;;;;10401447;28;20140;-39
2022/07/27 09:45:31;;;;;;;1.70;0.52;;;27.00;43.80;;;;;;10399870;28;20044;-42
2022/07/27 09:50:34;;;;;;;1.58;0.40;;;27.10;43.70;;;;;;10400102;28;20132;-41
2022/07/27 09:55:36;;;;;;;1.50;0.47;;;27.10;43.60;;;;;;10400496;28;20482;-40
2022/07/27 10:00:54;;;;;;;7.18;1.33;;;27.10;43.60;;;;;;10400290;28;20060;-39
2022/07/27 10:05:56;;;;;;;1.60;0.60;;;27.00;43.60;;;;;;10399487;28;20635;-41
2022/07/27 10:10:58;;;;;;;1.27;0.68;;;27.10;43.80;;;;;;10396004;28;20128;-40
2022/07/27 10:16:03;;;;;;;3.95;0.70;;;27.10;43.60;;;;;;10397675;28;20124;-37
2022/07/27 10:21:08;;;;;;;3.15;0.65;;;27.20;43.60;;;;;;10399224;28;20137;-40
2022/07/27 10:26:19;;;;;;;2.88;0.40;;;27.10;43.80;;;;;;10399052;28;20060;-41
2022/07/27 10:31:23;;;;;;;3.10;0.40;;;27.00;43.80;;;;;;10398044;28;20072;-42
2022/07/27 10:36:51;;;;;;;0.90;0.40;;;27.10;43.80;;;;;;10398400;28;20132;-38
2022/07/27 10:42:13;;;;;;;5.25;0.50;;;27.30;43.50;;;;;;10398768;28;20364;-41
2022/07/27 10:47:29;;;;;;;0.95;0.47;;;27.30;43.60;;;;;;10397021;28;20085;-41
2022/07/27 10:52:41;;;;;;;0.75;0.30;;;27.20;43.60;;;;;;10397259;28;20136;-45
2022/07/27 10:57:43;;;;;;;1.52;1.15;;;27.20;43.60;;;;;;10396340;28;20115;-39
2022/07/27 11:02:46;;;;;;;1.58;0.50;;;27.20;43.60;;;;;;10398966;28;20054;-41
2022/07/27 11:07:49;;;;;;;1.80;0.50;;;27.20;43.70;;;;;;10398399;28;20050;-38
2022/07/27 11:12:53;;;;;;;0.30;0.30;;;27.30;43.70;;;;;;10396529;28;20053;-41
2022/07/27 11:17:57;;;;;;;0.28;0.20;;;27.40;43.60;;;;;;10397398;28;20121;-39
2022/07/27 11:23:01;;;;;;;1.20;0.40;;;27.40;43.40;;;;;;10398606;28;20514;-42
2022/07/27 11:28:07;;;;;;;0.98;0.40;;;27.50;43.50;;;;;;10397074;28;20038;-39
2022/07/27 11:33:10;;;;;;;1.98;0.57;;;27.60;43.40;;;;;;10394297;28;20042;-40
2022/07/27 11:38:12;;;;;;;3.30;0.77;;;27.60;43.20;;;;;;10395957;28;20065;-40
2022/07/27 11:43:30;;;;;;;2.63;0.50;;;27.60;43.40;;;;;;10396183;28;20569;-40
2022/07/27 11:48:33;;;;;;;1.80;0.63;;;27.60;43.40;;;;;;10395672;28;20131;-39
2022/07/27 11:53:36;;;;;;;2.83;0.40;;;27.70;43.70;;;;;;10395770;28;20593;-40
2022/07/27 11:58:59;;;;;;;2.78;0.45;;;27.60;43.40;;;;;;10397255;28;20055;-38
2022/07/27 12:04:12;;;;;;;3.17;0.50;;;27.80;43.40;;;;;;10386471;28;20132;-42
2022/07/27 12:09:17;;;;;;;1.70;0.43;;;27.90;43.30;;;;;;10400443;28;20465;-38
2022/07/27 12:14:27;;;;;;;4.88;0.68;;;27.90;43.30;;;;;;10402433;28;20103;-38
2022/07/27 12:19:30;;;;;;;3.40;0.60;;;27.90;43.30;;;;;;10396024;28;20521;-39
2022/07/27 12:24:34;;;;;;;1.40;0.32;;;28.00;43.50;;;;;;10403779;28;20493;-38
2022/07/27 12:29:55;;;;;;;1.13;0.40;;;28.10;43.50;;;;;;10403400;28;20077;-43
2022/07/27 12:35:00;;;;;;;1.45;0.70;;;28.10;43.40;;;;;;10403758;28;20096;-41
2022/07/27 12:40:12;;;;;;;4.35;0.50;;;28.20;43.50;;;;;;10403606;28;20057;-45
2022/07/27 12:45:17;;;;;;;0.82;0.28;;;28.10;43.80;;;;;;10403522;28;20053;-39
2022/07/27 12:50:28;;;;;;;4.20;0.50;;;28.20;43.50;;;;;;10400642;28;20041;-41
2022/07/27 12:55:29;;;;;;;1.40;0.60;;;28.30;43.70;;;;;;10401932;28;20137;-40
2022/07/27 13:00:31;;;;;;;2.42;0.75;;;28.30;43.70;;;;;;10403008;28;20132;-39
2022/07/27 13:05:35;;;;;;;5.20;1.00;;;28.30;44.00;;;;;;10402348;28;20531;-40
2022/07/27 13:10:38;;;;;;;2.20;0.60;;;28.30;43.80;;;;;;10399207;28;20046;-39
2022/07/27 13:15:40;;;;;;;6.93;0.80;;;28.40;43.90;;;;;;10396432;28;20123;-47
2022/07/27 13:20:43;;;;;;;2.78;0.93;;;28.50;44.00;;;;;;10396327;28;20436;-41
2022/07/27 13:25:45;;;;;;;2.05;0.80;;;28.50;44.10;;;;;;10397851;28;20057;-40
2022/07/27 13:30:47;;;;;;;2.03;0.80;;;28.60;44.50;;;;;;10398724;28;20123;-40
2022/07/27 13:35:50;;;;;;;1.98;0.50;;;28.60;44.20;;;;;;10396049;28;20046;-39
2022/07/27 13:40:52;;;;;;;5.47;1.15;;;28.70;44.20;;;;;;10397123;28;20053;-39
2022/07/27 13:45:53;;;;;;;1.27;0.70;;;28.70;44.20;;;;;;10396524;28;20127;-39
2022/07/27 13:50:57;;;;;;;2.15;0.70;;;28.70;44.40;;;;;;10392928;28;21050;-39
2022/07/27 13:56:00;;;;;;;1.67;0.80;;;28.70;43.80;;;;;;10394822;28;20095;-39
2022/07/27 14:01:02;;;;;;;3.65;1.08;;;28.70;43.30;;;;;;10394842;28;20581;-39
2022/07/27 14:06:05;;;;;;;8.40;1.50;;;28.60;43.30;;;;;;10397370;28;20395;-38
2022/07/27 14:11:07;;;;;;;4.80;1.60;;;28.60;43.20;;;;;;10395140;28;20610;-40
2022/07/27 14:16:09;;;;;;;6.82;1.65;;;28.60;43.20;;;;;;10396405;28;20049;-49
2022/07/27 14:21:12;;;;;;;8.02;1.25;;;28.70;43.80;;;;;;10394118;28;20046;-46
2022/07/27 14:26:14;;;;;;;5.28;1.10;;;28.70;43.50;;;;;;10392788;28;20085;-45
2022/07/27 14:31:16;;;;;;;7.78;0.88;;;28.80;43.30;;;;;;10392839;28;20075;-47
2022/07/27 14:36:19;;;;;;;4.78;0.82;;;28.80;43.20;;;;;;10392932;28;20041;-43
2022/07/27 14:41:21;;;;;;;4.60;0.88;;;28.50;41.80;;;;;;10392865;28;20140;-46
2022/07/27 14:46:24;;;;;;;4.90;0.60;;;28.50;43.10;;;;;;10392275;28;20131;-45
2022/07/27 14:51:27;;;;;;;4.22;0.45;;;28.70;42.90;;;;;;10387794;28;20092;-44
2022/07/27 14:56:29;;;;;;;5.63;0.65;;;28.70;42.90;;;;;;10390422;28;20131;-45
2022/07/27 15:01:31;;;;;;;2.67;0.43;;;28.90;42.90;;;;;;10392014;28;20072;-46
2022/07/27 15:06:34;;;;;;;3.78;1.08;;;29.00;42.80;;;;;;10390505;28;20138;-48
2022/07/27 15:11:37;;;;;;;1.35;0.30;;;28.90;42.70;;;;;;10390398;28;20096;-47
2022/07/27 15:16:39;;;;;;;1.58;0.60;;;29.00;43.00;;;;;;10388720;28;20041;-48
2022/07/27 15:21:42;;;;;;;2.83;0.60;;;29.00;42.60;;;;;;10386077;28;20468;-45
2022/07/27 15:26:44;;;;;;;3.65;0.50;;;29.00;42.60;;;;;;10384079;28;20734;-47
2022/07/27 15:31:46;;;;;;;2.17;0.50;;;29.00;42.70;;;;;;10389649;28;20073;-49
2022/07/27 15:36:49;;;;;;;2.20;0.77;;;29.10;42.70;;;;;;10387695;28;20052;-41
2022/07/27 15:41:51;;;;;;;1.08;0.40;;;29.10;42.70;;;;;;10389677;28;20103;-47
2022/07/27 15:46:53;;;;;;;2.75;0.75;;;29.10;42.70;;;;;;10399592;28;20684;-44
2022/07/27 15:51:56;;;;;;;0.85;0.35;;;29.20;43.10;;;;;;10399856;28;20681;-44
2022/07/27 15:56:58;;;;;;;2.15;0.77;;;29.20;42.90;;;;;;10397385;28;20128;-52
2022/07/27 16:01:59;;;;;;;1.38;0.35;;;29.30;43.00;;;;;;10392898;28;20160;-46
2022/07/27 16:07:03;;;;;;;4.90;1.00;;;29.30;43.10;;;;;;10395491;28;20041;-47
2022/07/27 16:12:05;;;;;;;4.00;0.80;;;29.30;43.10;;;;;;10397101;28;20073;-51
2022/07/27 16:17:06;;;;;;;2.85;0.98;;;29.30;43.80;;;;;;10390715;28;20048;-41
2022/07/27 16:22:10;;;;;;;4.00;0.85;;;29.40;43.10;;;;;;10397202;28;20111;-45
2022/07/27 16:27:13;;;;;;;3.58;0.70;;;29.40;43.30;;;;;;10394276;28;20388;-46
2022/07/27 16:32:14;;;;;;;5.25;0.70;;;29.50;43.40;;;;;;10393802;28;20049;-44
2022/07/27 16:37:18;;;;;;;3.55;0.93;;;29.50;43.70;;;;;;10394755;28;20203;-45
2022/07/27 16:42:19;;;;;;;2.45;0.52;;;29.50;43.30;;;;;;10392117;28;20121;-50
2022/07/27 16:47:21;;;;;;;2.03;0.52;;;29.60;43.10;;;;;;10395256;28;20481;-43
2022/07/27 16:52:24;;;;;;;5.57;1.00;;;29.50;43.00;;;;;;10395506;28;20084;-47
2022/07/27 16:57:27;;;;;;;4.03;0.70;;;29.50;43.10;;;;;;10394299;28;20037;-47
2022/07/27 17:02:29;;;;;;;1.85;0.50;;;29.50;43.10;;;;;;10395296;28;20140;-44
2022/07/27 17:07:33;;;;;;;1.95;0.55;;;29.50;43.20;;;;;;10392143;28;20049;-46
2022/07/27 17:12:35;;;;;;;1.48;0.45;;;29.50;43.20;;;;;;10393256;28;20573;-44
2022/07/27 17:17:37;;;;;;;3.20;0.57;;;29.50;43.20;;;;;;10393918;28;20050;-41
2022/07/27 17:22:40;;;;;;;1.67;0.35;;;29.50;43.20;;;;;;10392165;28;20453;-46
2022/07/27 17:27:43;;;;;;;1.30;0.35;;;29.50;43.20;;;;;;10395252;28;20057;-47
2022/07/27 17:32:44;;;;;;;3.22;0.50;;;29.50;43.00;;;;;;10393238;28;20045;-48
2022/07/27 17:37:48;;;;;;;2.65;0.75;;;29.60;43.00;;;;;;10393936;28;20148;-47
2022/07/27 17:42:49;;;;;;;1.58;0.50;;;29.60;42.80;;;;;;10386790;28;20608;-44
2022/07/27 17:47:51;;;;;;;1.08;0.25;;;29.60;42.90;;;;;;10394661;28;20046;-50
2022/07/27 17:52:56;;;;;;;1.30;0.60;;;29.60;43.00;;;;;;10394763;28;20033;-47
2022/07/27 17:57:58;;;;;;;2.47;0.65;;;29.60;43.00;;;;;;10395749;28;20050;-45
2022/07/27 18:03:00;;;;;;;1.33;0.30;;;29.60;43.00;;;;;;10395715;28;20056;-47
2022/07/27 18:08:03;;;;;;;3.08;0.45;;;29.60;43.10;;;;;;10395193;28;20490;-45
2022/07/27 18:13:05;;;;;;;0.75;0.30;;;29.60;43.10;;;;;;10394477;28;20128;-46
2022/07/27 18:18:07;;;;;;;1.50;0.35;;;29.60;43.00;;;;;;10389095;28;20145;-44
2022/07/27 18:23:10;;;;;;;1.40;0.40;;;29.60;43.00;;;;;;10387323;28;20136;-45
2022/07/27 18:28:15;;;;;;;3.28;0.32;;;29.60;43.00;;;;;;10389283;28;20372;-47
2022/07/27 18:33:17;;;;;;;1.73;0.70;;;29.60;43.10;;;;;;10395123;28;20046;-44
2022/07/27 18:38:20;;;;;;;1.75;0.40;;;29.60;43.00;;;;;;10389263;28;20401;-46
2022/07/27 18:43:22;;;;;;;1.73;0.52;;;29.70;43.20;;;;;;10390984;28;20123;-41
2022/07/27 18:48:24;;;;;;;2.38;0.47;;;29.70;43.20;;;;;;10389823;28;20069;-46
2022/07/27 18:53:27;;;;;;;2.78;0.47;;;29.70;43.10;;;;;;10384610;28;20041;-43
2022/07/27 18:58:29;;;;;;;3.22;0.60;;;29.70;43.20;;;;;;10384306;28;20124;-48
2022/07/27 19:03:31;;;;;;;2.78;0.75;;;29.70;43.50;;;;;;10386725;28;20054;-47
2022/07/27 19:08:36;;;;;;;2.95;0.82;;;29.70;43.30;;;;;;10387582;28;20049;-48
2022/07/27 19:13:38;;;;;;;4.95;0.73;;;29.70;43.30;;;;;;10388124;28;20053;-44
2022/07/27 19:18:40;;;;;;;10.27;1.20;;;29.70;43.40;;;;;;10396112;28;20153;-50
2022/07/27 19:23:43;;;;;;;5.65;1.13;;;29.70;43.30;;;;;;10400022;28;20771;-49
2022/07/27 19:28:45;;;;;;;7.03;0.80;;;29.60;43.20;;;;;;10396297;28;20057;-47
2022/07/27 19:33:47;;;;;;;6.72;1.52;;;29.60;43.20;;;;;;10393554;28;20045;-47
2022/07/27 19:38:50;;;;;;;7.55;1.25;;;29.60;43.10;;;;;;10394990;28;20567;-50
2022/07/27 19:43:52;;;;;;;5.75;1.33;;;29.60;43.10;;;;;;10397409;28;20140;-45
2022/07/27 19:48:54;;;;;;;10.45;1.52;;;29.60;43.10;;;;;;10398364;28;20034;-45
2022/07/27 19:53:57;;;;;;;3.97;0.90;;;29.60;43.10;;;;;;10398274;28;20057;-47
2022/07/27 19:58:59;;;;;;;7.50;1.20;;;29.70;43.20;;;;;;10393401;28;20077;-47
2022/07/27 20:04:04;;;;;;;9.07;0.90;;;29.70;43.30;;;;;;10389637;28;20132;-42
2022/07/27 20:09:07;;;;;;;1.95;0.70;;;29.70;43.40;;;;;;10394867;28;20056;-48
2022/07/27 20:14:09;;;;;;;2.35;0.95;;;29.70;43.40;;;;;;10394507;28;20049;-40
2022/07/27 20:19:11;;;;;;;2.92;1.73;;;29.70;43.50;;;;;;10394898;28;20077;-51
2022/07/27 20:24:14;;;;;;;2.50;0.60;;;29.70;43.40;;;;;;10394508;28;21449;-49
2022/07/27 20:29:16;;;;;;;1.27;0.60;;;29.70;43.50;;;;;;10393008;28;20091;-47
2022/07/27 20:34:18;;;;;;;2.95;0.98;;;29.60;43.50;;;;;;10394071;28;20073;-50
2022/07/27 20:39:22;;;;;;;1.95;0.52;;;29.60;43.50;;;;;;10394281;28;20044;-47
2022/07/27 20:44:23;;;;;;;3.47;0.70;;;29.60;43.50;;;;;;10395459;28;20172;-45
2022/07/27 20:49:25;;;;;;;2.63;0.80;;;29.50;43.50;;;;;;10396116;28;20053;-48
2022/07/27 20:54:29;;;;;;;1.10;0.50;;;29.50;43.60;;;;;;10393995;28;20132;-48
2022/07/27 20:59:31;;;;;;;1.90;0.50;;;29.50;43.60;;;;;;10394204;28;20116;-47
2022/07/27 21:04:34;;;;;;;2.92;0.70;;;29.40;43.50;;;;;;10395192;28;20405;-44
2022/07/27 21:09:37;;;;;;;1.88;0.47;;;29.40;43.60;;;;;;10395886;28;20049;-48
2022/07/27 21:14:39;;;;;;;1.50;0.55;;;29.40;43.50;;;;;;10395425;28;20130;-48
2022/07/27 21:19:41;;;;;;;1.25;0.60;;;29.40;43.60;;;;;;10393137;28;20132;-45
2022/07/27 21:24:44;;;;;;;1.10;0.40;;;29.30;43.60;;;;;;10390855;28;20092;-46
2022/07/27 21:29:46;;;;;;;0.98;0.57;;;29.30;43.60;;;;;;10393090;28;20571;-47
2022/07/27 21:34:47;;;;;;;1.30;0.60;;;29.30;43.70;;;;;;10392179;28;20148;-46
2022/07/27 21:39:51;;;;;;;1.13;0.75;;;29.20;43.70;;;;;;10396559;28;20526;-45
2022/07/27 21:44:52;;;;;;;0.70;0.22;;;29.20;43.70;;;;;;10382723;28;20057;-45
2022/07/27 21:49:54;;;;;;;3.50;0.45;;;29.10;43.60;;;;;;10389067;28;20065;-50
2022/07/27 21:54:57;;;;;;;1.13;0.40;;;29.10;43.70;;;;;;10395262;28;20136;-49
2022/07/27 21:59:59;;;;;;;3.38;0.65;;;29.10;43.70;;;;;;10393761;28;20081;-42
2022/07/27 22:05:01;;;;;;;1.45;0.45;;;29.10;43.80;;;;;;10392043;28;20128;-47
2022/07/27 22:10:05;;;;;;;4.13;0.73;;;29.00;43.80;;;;;;10392808;28;20087;-44
2022/07/27 22:15:08;;;;;;;0.82;0.20;;;29.00;43.80;;;;;;10394165;28;20501;-50
2022/07/27 22:20:11;;;;;;;0.52;0.30;;;28.90;43.70;;;;;;10394766;28;20488;-42
2022/07/27 22:25:14;;;;;;;7.53;2.05;;;28.90;43.90;;;;;;10389236;28;20172;-42
2022/07/27 22:30:16;;;;;;;0.60;0.30;;;28.90;43.90;;;;;;10388944;28;20037;-46
2022/07/27 22:35:18;;;;;;;1.02;0.47;;;28.80;43.80;;;;;;10389523;28;20104;-45
2022/07/27 22:40:21;;;;;;;1.23;0.20;;;28.70;43.90;;;;;;10390639;28;20053;-48
2022/07/27 22:45:23;;;;;;;1.65;0.65;;;28.70;43.90;;;;;;10391703;28;20045;-46
2022/07/27 22:50:25;;;;;;;0.75;0.30;;;28.70;43.90;;;;;;10393218;28;20059;-45
2022/07/27 22:55:28;;;;;;;0.82;0.40;;;28.60;43.80;;;;;;10392125;28;20103;-44
2022/07/27 23:00:31;;;;;;;0.93;0.40;;;28.60;44.00;;;;;;10391403;28;20573;-43
2022/07/27 23:05:32;;;;;;;0.52;0.40;;;28.60;44.00;;;;;;10392046;28;20140;-43
2022/07/27 23:10:48;;;;;;;1.02;0.30;;;28.50;44.00;;;;;;10391701;28;20049;-41
2022/07/27 23:15:50;;;;;;;1.45;0.43;;;28.50;44.00;;;;;;10390509;28;20041;-43
2022/07/27 23:20:52;;;;;;;0.85;0.30;;;28.50;44.10;;;;;;10391913;28;20033;-46
2022/07/27 23:25:55;;;;;;;1.20;0.30;;;28.40;44.00;;;;;;10391297;28;20487;-43
2022/07/27 23:30:57;;;;;;;0.40;0.30;;;28.40;44.00;;;;;;10391464;28;20136;-42
2022/07/27 23:35:59;;;;;;;2.13;0.38;;;28.30;44.00;;;;;;10391408;28;20081;-42
2022/07/27 23:41:02;;;;;;;2.42;0.28;;;28.30;44.10;;;;;;10391787;28;20064;-44
2022/07/27 23:46:04;;;;;;;0.52;0.20;;;28.30;44.00;;;;;;10391066;28;20041;-44
2022/07/27 23:51:07;;;;;;;2.03;0.47;;;28.20;44.10;;;;;;10391841;28;20060;-44
2022/07/27 23:56:10;;;;;;;0.77;0.40;;;28.20;44.10;;;;;;10390183;28;20084;-45
